createdAt,value
2023-10-24T00:01:39.750Z,100255.43
2023-10-24T00:04:23.641Z,100252.91
2023-10-24T00:07:53.697Z,100248.17
2023-10-24T00:11:09.315Z,100241.56
2023-10-24T00:14:10.062Z,100237.69
2023-10-24T00:17:27.783Z,100242.59
2023-10-24T00:20:14.308Z,100241.29
2023-10-24T00:23:58.487Z,100239.38
2023-10-24T00:27:38.378Z,100233.45
2023-10-24T00:31:43.947Z,100224.46
2023-10-24T00:34:47.357Z,100225.08
2023-10-24T00:38:09.909Z,100226.48
2023-10-24T00:41:35.690Z,100229.17
2023-10-24T00:44:34.229Z,100223.58
2023-10-24T00:48:02.946Z,100227.05
2023-10-24T00:55:06.011Z,100237.17
2023-10-24T00:58:13.360Z,100234.79
2023-10-24T01:01:42.234Z,100233.00
2023-10-24T01:04:49.039Z,100224.98
2023-10-24T01:08:14.590Z,100221.02
2023-10-24T01:12:38.306Z,100222.62
2023-10-24T01:19:34.011Z,100218.69
2023-10-24T01:22:46.496Z,100209.52
2023-10-24T01:26:18.642Z,100205.10
2023-10-24T01:29:16.821Z,100197.22
2023-10-24T01:36:25.347Z,100188.67
2023-10-24T01:39:41.772Z,100185.15
2023-10-24T01:42:56.514Z,100182.07
2023-10-24T01:45:50.908Z,100179.83
2023-10-24T01:48:46.211Z,100175.40
2023-10-24T01:52:34.167Z,100173.33
2023-10-24T01:56:37.420Z,100176.87
2023-10-24T01:59:55.383Z,100170.09
2023-10-24T02:05:52.601Z,100174.20
2023-10-24T02:08:59.829Z,100172.05
2023-10-24T02:11:42.994Z,100165.63
2023-10-24T02:15:34.444Z,100167.02
2023-10-24T02:18:38.694Z,100161.46
2023-10-24T02:21:38.126Z,100161.91
2023-10-24T02:25:06.031Z,100156.77
2023-10-24T02:29:01.254Z,100149.58
2023-10-24T02:31:52.916Z,100146.52
2023-10-24T02:35:17.933Z,100138.64
2023-10-24T02:42:54.996Z,100132.96
2023-10-24T02:46:07.436Z,100139.70
2023-10-24T02:49:13.621Z,100138.25
2023-10-24T02:52:36.408Z,100139.74
2023-10-24T02:55:54.765Z,100142.45
2023-10-24T02:58:49.655Z,100142.23
2023-10-24T03:01:26.690Z,100140.14
2023-10-24T03:04:40.575Z,100137.50
2023-10-24T03:08:40.804Z,100140.84
2023-10-24T03:11:51.252Z,100138.33
2023-10-24T03:14:50.405Z,100138.35
2023-10-24T03:18:20.224Z,100134.55
2023-10-24T03:21:36.830Z,100129.41
2023-10-24T03:27:55.045Z,100113.63
2023-10-24T03:30:44.640Z,100107.81
2023-10-24T03:33:49.021Z,100109.86
2023-10-24T03:37:28.549Z,100115.71
2023-10-24T03:43:21.318Z,100124.09
2023-10-24T03:47:03.913Z,100129.38
2023-10-24T03:50:07.744Z,100124.59
2023-10-24T03:53:04.521Z,100125.84
2023-10-24T03:56:37.204Z,100128.30
2023-10-24T04:00:26.417Z,100128.98
2023-10-24T04:03:28.140Z,100126.88
2023-10-24T04:13:44.900Z,100110.29
2023-10-24T04:16:55.634Z,100103.71
2023-10-24T04:20:39.078Z,100110.04
2023-10-24T04:24:18.698Z,100116.21
2023-10-24T04:27:31.454Z,100120.23
2023-10-24T04:30:39.309Z,100112.09
2023-10-24T04:34:01.708Z,100119.42
2023-10-24T04:36:44.759Z,100117.36
2023-10-24T04:39:45.760Z,100119.66
2023-10-24T04:42:56.012Z,100115.73
2023-10-24T04:46:05.733Z,100114.46
2023-10-24T04:49:09.942Z,100119.30
2023-10-24T04:52:22.593Z,100115.46
2023-10-24T04:55:25.434Z,100113.94
2023-10-24T04:58:43.490Z,100109.74
2023-10-24T05:01:45.077Z,100109.06
2023-10-24T05:04:47.825Z,100104.93
2023-10-24T05:07:55.591Z,100097.45
2023-10-24T05:14:57.428Z,100080.67
2023-10-24T05:18:18.121Z,100081.08
2023-10-24T05:21:29.045Z,100087.16
2023-10-24T05:24:38.670Z,100083.96
2023-10-24T05:27:36.805Z,100084.10
2023-10-24T05:30:46.027Z,100084.43
2023-10-24T05:33:43.087Z,100089.33
2023-10-24T05:36:46.687Z,100098.08
2023-10-24T05:40:42.536Z,100096.02
2023-10-24T05:44:11.290Z,100089.88
2023-10-24T05:50:10.563Z,100101.19
2023-10-24T05:51:30.707Z,100096.27
2023-10-24T05:54:31.926Z,100103.47
2023-10-24T05:57:21.880Z,100104.58
2023-10-24T06:02:58.224Z,100108.45
2023-10-24T06:06:11.292Z,100107.52
2023-10-24T06:09:16.883Z,100109.29
2023-10-24T06:12:31.063Z,100100.54
2023-10-24T06:15:36.954Z,100083.79
2023-10-24T06:21:53.867Z,100068.70
2023-10-24T06:25:20.703Z,100067.15
2023-10-24T06:28:09.966Z,100070.54
2023-10-24T06:30:57.264Z,100061.56
2023-10-24T06:33:38.916Z,100051.38
2023-10-24T06:36:19.866Z,100043.37
2023-10-24T06:39:14.895Z,100045.42
2023-10-24T06:42:02.386Z,100047.86
2023-10-24T06:45:00.992Z,100051.50
2023-10-24T06:47:59.027Z,100049.02
2023-10-24T06:50:49.934Z,100051.36
2023-10-24T06:53:31.883Z,100052.95
2023-10-24T06:56:12.543Z,100052.81
2023-10-24T06:59:11.236Z,100044.91
2023-10-24T07:02:41.795Z,100029.31
2023-10-24T07:05:22.096Z,100025.36
2023-10-24T07:08:09.239Z,100028.79
2023-10-24T07:10:44.839Z,100022.77
2023-10-24T07:13:30.993Z,100029.45
2023-10-24T07:20:22.006Z,100029.96
2023-10-24T07:26:50.692Z,100027.35
2023-10-24T07:29:47.172Z,100022.51
2023-10-24T07:32:50.188Z,100011.68
2023-10-24T07:35:53.690Z,100008.84
2023-10-24T07:38:46.648Z,100010.33
2023-10-24T07:44:23.466Z,100018.56
2023-10-24T07:47:37.490Z,100019.20
2023-10-24T07:50:26.258Z,100016.58
2023-10-24T07:53:28.003Z,100006.69
2023-10-24T07:56:16.617Z,100002.61
2023-10-24T07:59:21.648Z,99990.02
2023-10-24T08:02:31.606Z,99979.95
2023-10-24T08:05:04.620Z,99982.90
2023-10-24T08:07:43.874Z,99988.69
2023-10-24T08:10:28.695Z,99990.11
2023-10-24T08:13:25.994Z,99989.96
2023-10-24T08:16:22.811Z,99985.70
2023-10-24T08:19:02.598Z,99980.95
2023-10-24T08:21:47.045Z,99971.23
2023-10-24T08:24:31.824Z,99963.14
2023-10-24T08:27:24.407Z,99958.25
2023-10-24T08:29:56.151Z,99957.10
2023-10-24T08:32:54.416Z,99957.83
2023-10-24T08:35:57.343Z,99951.72
2023-10-24T08:38:36.684Z,99947.28
2023-10-24T08:41:16.238Z,99942.98
2023-10-24T08:44:02.295Z,99928.11
2023-10-24T08:46:37.688Z,99919.24
2023-10-24T08:49:23.895Z,99914.31
2023-10-24T08:52:26.579Z,99912.52
2023-10-24T08:55:14.351Z,99910.21
2023-10-24T08:57:53.116Z,99901.30
2023-10-24T09:00:58.189Z,99889.22
2023-10-24T09:03:39.971Z,99884.52
2023-10-24T09:06:37.505Z,99875.88
2023-10-24T09:09:14.605Z,99866.15
2023-10-24T09:12:06.756Z,99860.20
2023-10-24T09:14:55.124Z,99855.07
2023-10-24T09:17:46.637Z,99856.09
2023-10-24T09:20:35.465Z,99854.05
2023-10-24T09:23:13.142Z,99854.08
2023-10-24T09:25:49.999Z,99858.10
2023-10-24T09:28:31.534Z,99860.40
2023-10-24T09:31:09.373Z,99857.58
2023-10-24T09:33:58.906Z,99861.89
2023-10-24T09:36:34.491Z,99859.56
2023-10-24T09:39:28.309Z,99854.92
2023-10-24T09:42:15.535Z,99852.04
2023-10-24T09:47:45.428Z,99852.60
2023-10-24T09:50:27.192Z,99845.10
2023-10-24T09:53:05.164Z,99845.27
2023-10-24T09:56:01.803Z,99846.03
2023-10-24T09:59:21.862Z,99848.77
2023-10-24T10:06:07.577Z,99839.53
2023-10-24T10:13:04.778Z,99838.07
2023-10-24T10:16:16.789Z,99827.53
2023-10-24T10:19:31.272Z,99823.83
2023-10-24T10:22:52.286Z,99810.53
2023-10-24T10:26:03.549Z,99807.20
2023-10-24T10:30:16.598Z,99806.34
2023-10-24T10:42:22.223Z,99807.15
2023-10-24T10:45:45.506Z,99791.33
2023-10-24T10:49:15.103Z,99775.10
2023-10-24T10:53:15.541Z,99764.23
2023-10-24T10:57:26.046Z,99758.47
2023-10-24T11:00:55.732Z,99741.41
2023-10-24T11:08:03.475Z,99720.71
2023-10-24T11:15:05.767Z,99693.46
2023-10-24T11:21:01.725Z,99709.85
2023-10-24T11:24:46.452Z,99707.19
2023-10-24T11:41:54.985Z,99721.81
2023-10-24T11:45:05.458Z,99723.02
2023-10-24T11:47:57.972Z,99709.32
2023-10-24T11:51:13.260Z,99704.63
2023-10-24T11:54:54.746Z,99694.05
2023-10-24T11:58:36.984Z,99678.16
2023-10-24T12:01:46.375Z,99669.14
2023-10-24T12:04:40.439Z,99674.48
2023-10-24T12:07:18.081Z,99667.37
2023-10-24T12:09:57.661Z,99676.65
2023-10-24T12:12:49.421Z,99679.58
2023-10-24T12:15:41.536Z,99680.02
2023-10-24T12:19:01.805Z,99677.22
2023-10-24T12:22:04.384Z,99674.52
2023-10-24T12:25:41.459Z,99668.05
2023-10-24T12:28:48.316Z,99658.86
2023-10-24T12:32:06.879Z,99659.91
2023-10-24T12:34:55.818Z,99652.80
2023-10-24T12:37:40.893Z,99644.93
2023-10-24T12:40:51.126Z,99640.70
2023-10-24T12:43:46.817Z,99636.12
2023-10-24T12:46:22.863Z,99626.88
2023-10-24T12:49:43.700Z,99620.20
2023-10-24T12:52:51.501Z,99610.21
2023-10-24T12:55:25.717Z,99606.23
2023-10-24T12:58:18.797Z,99599.31
2023-10-24T13:01:00.064Z,99594.27
2023-10-24T13:03:37.949Z,99594.27
2023-10-24T13:06:15.009Z,99587.13
2023-10-24T13:08:48.321Z,99584.96
2023-10-24T13:11:21.568Z,99583.09
2023-10-24T13:14:00.385Z,99573.08
2023-10-24T13:19:20.958Z,99579.82
2023-10-24T13:21:59.461Z,99574.27
2023-10-24T13:24:38.380Z,99571.23
2023-10-24T13:27:14.963Z,99565.03
2023-10-24T13:33:03.582Z,99551.52
2023-10-24T13:36:11.465Z,99543.23
2023-10-24T13:38:57.026Z,99537.91
2023-10-24T13:42:09.114Z,99530.92
2023-10-24T13:44:41.191Z,99526.20
2023-10-24T13:47:15.942Z,99525.79
2023-10-24T13:49:49.345Z,99522.55
2023-10-24T13:52:31.962Z,99512.30
2023-10-24T13:55:16.474Z,99508.10
2023-10-24T13:58:06.981Z,99501.61
2023-10-24T14:00:45.192Z,99494.48
2023-10-24T14:03:59.668Z,99492.34
2023-10-24T14:06:37.648Z,99489.30
2023-10-24T14:09:25.274Z,99486.20
2023-10-24T14:12:03.896Z,99486.70
2023-10-24T14:15:13.405Z,99485.86
2023-10-24T14:18:00.534Z,99491.38
2023-10-24T14:21:09.258Z,99492.89
2023-10-24T14:23:41.487Z,99498.06
2023-10-24T14:26:22.280Z,99503.00
2023-10-24T14:28:57.358Z,99500.69
2023-10-24T14:32:01.442Z,99497.48
2023-10-24T14:34:48.276Z,99495.00
2023-10-24T14:37:28.677Z,99487.80
2023-10-24T14:43:37.932Z,99483.98
2023-10-24T14:46:12.449Z,99489.90
2023-10-24T15:14:30.405Z,99453.63
2023-10-24T15:37:59.859Z,99407.40
2023-10-24T15:46:09.264Z,99396.20
2023-10-24T15:48:51.270Z,99384.98
2023-10-24T15:51:52.387Z,99383.86
2023-10-24T15:54:34.307Z,99384.29
2023-10-24T15:57:15.081Z,99379.89
2023-10-24T15:59:52.876Z,99373.12
2023-10-24T16:02:37.798Z,99361.85
2023-10-24T16:05:13.632Z,99366.21
2023-10-24T16:08:08.786Z,99371.96
2023-10-24T16:10:56.610Z,99368.11
2023-10-24T16:14:03.317Z,99372.35
2023-10-24T16:17:20.337Z,99373.45
2023-10-24T16:20:09.364Z,99378.33
2023-10-24T16:22:57.441Z,99378.45
2023-10-24T16:26:07.873Z,99374.13
2023-10-24T16:29:44.620Z,99372.45
2023-10-24T16:33:02.514Z,99366.73
2023-10-24T16:43:25.882Z,99367.69
2023-10-24T16:52:57.144Z,99347.73
2023-10-24T16:55:54.296Z,99339.95
2023-10-24T16:59:16.776Z,99337.75
2023-10-24T17:02:59.120Z,99333.98
2023-10-24T17:05:59.118Z,99331.38
2023-10-24T17:09:05.937Z,99331.31
2023-10-24T17:12:05.066Z,99329.45
2023-10-24T17:16:07.306Z,99325.98
2023-10-24T17:18:55.744Z,99320.41
2023-10-24T17:21:47.213Z,99318.52
2023-10-24T17:24:59.193Z,99313.05
2023-10-24T17:28:23.220Z,99313.34
2023-10-24T17:32:47.596Z,99310.23
2023-10-24T17:35:12.291Z,99309.42
2023-10-24T17:39:31.675Z,99301.94
2023-10-24T17:46:51.746Z,99277.47
2023-10-24T17:53:45.761Z,99271.87
2023-10-24T17:56:51.580Z,99272.29
2023-10-24T18:03:48.036Z,99277.42
2023-10-24T18:15:01.480Z,99269.13
2023-10-24T18:18:10.591Z,99272.33
2023-10-24T18:22:13.673Z,99275.50
2023-10-24T18:26:01.223Z,99281.95
2023-10-24T18:32:46.105Z,99283.36
2023-10-24T18:40:11.186Z,99279.20
2023-10-24T18:43:45.787Z,99272.41
2023-10-24T19:03:58.928Z,99249.85
2023-10-24T19:08:10.028Z,99249.16
2023-10-24T19:11:31.364Z,99240.13
2023-10-24T19:15:13.420Z,99235.47
2023-10-24T20:16:35.585Z,99144.65
2023-10-24T20:20:35.413Z,99136.42
2023-10-24T20:24:42.597Z,99134.87
2023-10-24T20:32:18.703Z,99118.08
2023-10-24T21:14:35.494Z,99052.80
2023-10-24T21:21:27.693Z,99031.26
2023-10-24T21:24:24.262Z,99024.98
2023-10-24T21:27:42.370Z,99017.59
2023-10-24T21:38:38.970Z,99002.46
2023-10-24T21:54:36.892Z,98980.67
2023-10-24T21:57:48.876Z,98972.08
2023-10-24T22:40:08.977Z,98935.22
2023-10-24T22:43:43.631Z,98934.89
2023-10-24T22:51:28.963Z,98925.19
2023-10-24T23:12:26.765Z,98901.58
2023-10-24T23:16:02.620Z,98893.69
2023-10-24T23:30:45.557Z,98864.03
2023-10-24T23:34:53.092Z,98857.01
2023-10-24T23:38:30.134Z,98852.55
2023-10-24T23:42:02.952Z,98854.89
2023-10-24T23:53:48.798Z,98842.52
